createdAt,value
2022-08-20T00:01:17.841Z,100297.69
2022-08-20T00:03:35.933Z,100300.88
2022-08-20T00:05:42.348Z,100306.63
2022-08-20T00:07:44.492Z,100313.09
2022-08-20T00:09:46.506Z,100309.53
2022-08-20T00:11:48.476Z,100310.78
2022-08-20T00:13:53.497Z,100316.53
2022-08-20T00:15:55.522Z,100318.75
2022-08-20T00:17:57.992Z,100320.59
2022-08-20T00:19:59.899Z,100332.44
2022-08-20T00:22:01.939Z,100337.38
2022-08-20T00:24:04.820Z,100340.31
2022-08-20T00:26:07.046Z,100351.78
2022-08-20T00:28:09.125Z,100356.72
2022-08-20T00:30:12.445Z,100348.38
2022-08-20T00:32:14.427Z,100355.69
2022-08-20T00:34:16.451Z,100355.47
2022-08-20T00:36:18.601Z,100357.03
2022-08-20T00:38:20.893Z,100352.41
2022-08-20T00:40:33.397Z,100356.38
2022-08-20T00:42:47.114Z,100350.22
2022-08-20T00:44:49.126Z,100360.69
2022-08-20T00:46:51.965Z,100357.66
2022-08-20T00:48:55.924Z,100356.09
2022-08-20T00:51:29.966Z,100353.16
2022-08-20T00:53:33.443Z,100352.63
2022-08-20T00:55:35.585Z,100344.44
2022-08-20T00:57:50.622Z,100341.25
2022-08-20T01:00:03.131Z,100334.03
2022-08-20T01:02:09.750Z,100329.19
2022-08-20T01:04:11.796Z,100330.00
2022-08-20T01:06:13.891Z,100320.28
2022-08-20T01:08:17.548Z,100317.00
2022-08-20T01:10:26.216Z,100314.97
2022-08-20T01:12:29.302Z,100318.25
2022-08-20T01:14:34.164Z,100306.94
2022-08-20T01:16:36.674Z,100309.63
2022-08-20T01:18:43.280Z,100297.81
2022-08-20T01:20:58.627Z,100294.66
2022-08-20T01:23:37.227Z,100301.88
2022-08-20T01:26:00.686Z,100306.59
2022-08-20T01:28:02.702Z,100291.94
2022-08-20T01:30:06.119Z,100296.72
2022-08-20T01:32:09.053Z,100306.84
2022-08-20T01:34:14.778Z,100303.19
2022-08-20T01:36:18.556Z,100300.81
2022-08-20T01:38:20.717Z,100306.47
2022-08-20T01:41:11.726Z,100311.75
2022-08-20T01:43:13.802Z,100318.00
2022-08-20T01:45:16.038Z,100308.28
2022-08-20T01:47:27.807Z,100303.31
2022-08-20T01:49:32.226Z,100316.69
2022-08-20T01:51:34.319Z,100324.75
2022-08-20T01:53:39.418Z,100313.88
2022-08-20T01:55:41.401Z,100325.19
2022-08-20T01:57:43.448Z,100334.16
2022-08-20T01:59:45.687Z,100339.09
2022-08-20T02:01:47.951Z,100349.25
2022-08-20T02:03:50.304Z,100343.22
2022-08-20T02:05:53.565Z,100342.13
2022-08-20T02:07:55.706Z,100341.38
2022-08-20T02:09:57.854Z,100342.22
2022-08-20T02:11:59.929Z,100344.66
2022-08-20T02:14:02.184Z,100345.13
2022-08-20T02:16:06.132Z,100348.38
2022-08-20T02:18:10.732Z,100362.94
2022-08-20T02:20:18.143Z,100364.19
2022-08-20T02:22:49.939Z,100372.78
2022-08-20T02:24:52.562Z,100370.47
2022-08-20T02:26:55.059Z,100368.50
2022-08-20T02:28:57.596Z,100375.00
2022-08-20T02:31:07.676Z,100366.13
2022-08-20T02:33:11.732Z,100367.34
2022-08-20T02:35:15.046Z,100367.81
2022-08-20T02:37:18.612Z,100368.59
2022-08-20T02:39:20.645Z,100365.03
2022-08-20T02:41:22.636Z,100359.78
2022-08-20T02:43:24.661Z,100354.56
2022-08-20T02:45:26.783Z,100369.06
2022-08-20T02:47:28.853Z,100362.69
2022-08-20T02:49:30.835Z,100365.50
2022-08-20T02:51:33.501Z,100366.25
2022-08-20T02:53:38.550Z,100359.91
2022-08-20T02:55:40.554Z,100360.00
2022-08-20T02:57:43.082Z,100355.63
2022-08-20T02:59:45.357Z,100360.00
2022-08-20T03:01:59.122Z,100357.13
2022-08-20T03:04:03.674Z,100353.44
2022-08-20T03:06:06.638Z,100351.53
2022-08-20T03:08:10.091Z,100350.84
2022-08-20T03:10:12.633Z,100353.84
2022-08-20T03:12:17.359Z,100350.25
2022-08-20T03:14:19.590Z,100351.97
2022-08-20T03:16:21.609Z,100344.28
2022-08-20T03:18:25.283Z,100336.19
2022-08-20T03:20:27.402Z,100342.28
2022-08-20T03:22:29.431Z,100336.25
2022-08-20T03:24:31.438Z,100334.19
2022-08-20T03:26:33.445Z,100333.84
2022-08-20T03:28:35.494Z,100326.50
2022-08-20T03:30:37.555Z,100327.66
2022-08-20T03:32:39.722Z,100311.56
2022-08-20T03:34:41.815Z,100307.38
2022-08-20T03:36:43.862Z,100310.97
2022-08-20T03:38:45.977Z,100323.00
2022-08-20T03:40:48.556Z,100319.75
2022-08-20T03:42:52.625Z,100338.56
2022-08-20T03:44:58.514Z,100346.34
2022-08-20T03:47:01.342Z,100347.25
2022-08-20T03:49:03.645Z,100344.91
2022-08-20T03:51:05.838Z,100342.44
2022-08-20T03:53:13.197Z,100344.59
2022-08-20T03:55:16.805Z,100344.22
2022-08-20T03:57:18.842Z,100347.44
2022-08-20T03:59:20.828Z,100349.84
2022-08-20T04:01:44.376Z,100352.66
2022-08-20T04:03:45.453Z,100349.53
2022-08-20T04:05:47.643Z,100349.53
2022-08-20T04:07:50.791Z,100338.28
2022-08-20T04:09:54.559Z,100342.22
2022-08-20T04:12:01.053Z,100342.16
2022-08-20T04:14:03.041Z,100340.19
2022-08-20T04:16:11.739Z,100344.22
2022-08-20T04:18:20.509Z,100331.88
2022-08-20T04:20:26.041Z,100332.22
2022-08-20T04:22:28.115Z,100337.81
2022-08-20T04:24:32.318Z,100339.38
2022-08-20T04:26:36.482Z,100346.28
2022-08-20T04:28:38.556Z,100339.00
2022-08-20T04:30:40.545Z,100342.69
2022-08-20T04:32:50.053Z,100341.84
2022-08-20T04:34:52.347Z,100342.69
2022-08-20T04:36:54.339Z,100345.44
2022-08-20T04:38:56.404Z,100358.72
2022-08-20T04:40:58.435Z,100355.47
2022-08-20T04:43:00.592Z,100353.47
2022-08-20T04:45:03.057Z,100346.94
2022-08-20T04:47:06.241Z,100340.06
2022-08-20T04:49:08.308Z,100340.00
2022-08-20T04:51:15.150Z,100348.41
2022-08-20T04:53:21.635Z,100353.22
2022-08-20T04:55:25.981Z,100353.22
2022-08-20T04:57:28.130Z,100344.28
2022-08-20T04:59:30.771Z,100339.75
2022-08-20T05:01:33.306Z,100344.09
2022-08-20T05:03:37.778Z,100341.69
2022-08-20T05:05:39.775Z,100349.69
2022-08-20T05:07:44.736Z,100348.09
2022-08-20T05:09:46.799Z,100348.00
2022-08-20T05:11:48.817Z,100347.94
2022-08-20T05:13:52.918Z,100347.56
2022-08-20T05:15:56.246Z,100353.97
2022-08-20T05:18:00.870Z,100345.44
2022-08-20T05:20:03.559Z,100346.56
2022-08-20T05:22:05.489Z,100350.63
2022-08-20T05:24:07.954Z,100344.22
2022-08-20T05:26:13.109Z,100339.25
2022-08-20T05:28:23.960Z,100329.28
2022-08-20T05:30:26.961Z,100333.66
2022-08-20T05:32:30.270Z,100322.28
2022-08-20T05:34:32.257Z,100322.56
2022-08-20T05:36:34.891Z,100313.91
2022-08-20T05:38:36.954Z,100318.75
2022-08-20T05:40:40.652Z,100325.13
2022-08-20T05:42:43.494Z,100325.88
2022-08-20T05:44:46.688Z,100331.53
2022-08-20T05:46:48.770Z,100326.97
2022-08-20T05:48:50.824Z,100326.06
2022-08-20T05:50:54.504Z,100328.38
2022-08-20T05:52:56.512Z,100332.53
2022-08-20T05:54:58.533Z,100333.63
2022-08-20T05:57:00.576Z,100329.88
2022-08-20T05:59:04.120Z,100332.69
2022-08-20T06:01:06.361Z,100335.84
2022-08-20T06:03:27.279Z,100347.41
2022-08-20T06:05:29.313Z,100348.69
2022-08-20T06:07:31.337Z,100356.69
2022-08-20T06:09:33.571Z,100360.81
2022-08-20T06:11:37.396Z,100367.78
2022-08-20T06:13:39.563Z,100364.94
2022-08-20T06:15:41.679Z,100375.91
2022-08-20T06:17:43.741Z,100373.84
2022-08-20T06:19:46.964Z,100376.16
2022-08-20T06:21:49.045Z,100381.00
2022-08-20T06:23:59.195Z,100373.69
2022-08-20T06:26:01.820Z,100372.94
2022-08-20T06:28:04.240Z,100384.41
2022-08-20T06:30:09.049Z,100382.84
2022-08-20T06:32:11.074Z,100388.75
2022-08-20T06:34:13.129Z,100385.91
2022-08-20T06:36:15.202Z,100394.06
2022-08-20T06:38:20.987Z,100385.00
2022-08-20T06:40:25.336Z,100379.16
2022-08-20T06:42:27.337Z,100384.00
2022-08-20T06:44:29.352Z,100378.72
2022-08-20T06:46:32.372Z,100380.75
2022-08-20T06:48:34.447Z,100371.28
2022-08-20T06:50:47.104Z,100370.06
2022-08-20T06:52:52.730Z,100377.25
2022-08-20T06:54:55.276Z,100379.59
2022-08-20T06:56:57.497Z,100379.88
2022-08-20T06:58:59.685Z,100377.47
2022-08-20T07:01:08.756Z,100368.91
2022-08-20T07:03:14.140Z,100378.16
2022-08-20T07:05:16.726Z,100368.72
2022-08-20T07:07:19.838Z,100370.75
2022-08-20T07:09:21.834Z,100383.06
2022-08-20T07:11:28.019Z,100386.59
2022-08-20T07:13:30.639Z,100388.97
2022-08-20T07:15:33.657Z,100390.94
2022-08-20T07:17:35.875Z,100394.78
2022-08-20T07:19:37.901Z,100401.97
2022-08-20T07:21:40.075Z,100395.88
2022-08-20T07:23:42.269Z,100394.09
2022-08-20T07:25:44.526Z,100398.00
2022-08-20T07:27:46.654Z,100387.75
2022-08-20T07:30:12.659Z,100395.81
2022-08-20T07:32:39.345Z,100396.69
2022-08-20T07:34:43.617Z,100397.34
2022-08-20T07:36:48.874Z,100398.06
2022-08-20T07:38:51.165Z,100397.28
2022-08-20T07:40:56.511Z,100397.00
2022-08-20T07:43:00.824Z,100391.72
2022-08-20T07:45:02.845Z,100397.13
2022-08-20T07:47:06.540Z,100399.41
2022-08-20T07:49:10.072Z,100401.34
2022-08-20T07:51:12.490Z,100398.34
2022-08-20T07:53:14.559Z,100391.38
2022-08-20T07:55:16.920Z,100388.53
2022-08-20T07:57:18.945Z,100401.69
2022-08-20T07:59:21.532Z,100393.59
2022-08-20T08:01:28.644Z,100400.25
2022-08-20T08:03:40.702Z,100407.84
2022-08-20T08:05:52.330Z,100403.06
2022-08-20T08:07:54.450Z,100409.78
2022-08-20T08:09:56.600Z,100405.72
2022-08-20T08:11:59.127Z,100409.72
2022-08-20T08:14:01.071Z,100409.97
2022-08-20T08:16:03.374Z,100413.88
2022-08-20T08:18:16.650Z,100409.47
2022-08-20T08:20:22.724Z,100418.34
2022-08-20T08:22:24.747Z,100405.66
2022-08-20T08:24:28.646Z,100416.22
2022-08-20T08:26:30.770Z,100417.78
2022-08-20T08:28:32.849Z,100416.56
2022-08-20T08:30:34.844Z,100414.44
2022-08-20T08:32:37.771Z,100407.16
2022-08-20T08:34:39.806Z,100411.94
2022-08-20T08:36:44.275Z,100413.28
2022-08-20T08:38:46.525Z,100415.31
2022-08-20T08:40:50.796Z,100420.81
2022-08-20T08:43:02.885Z,100416.56
2022-08-20T08:45:08.334Z,100422.41
2022-08-20T08:47:27.455Z,100420.56
2022-08-20T08:49:38.191Z,100425.19
2022-08-20T08:51:49.264Z,100425.53
2022-08-20T08:53:56.740Z,100426.09
2022-08-20T08:55:59.955Z,100432.28
2022-08-20T08:58:16.511Z,100432.56
2022-08-20T09:00:21.649Z,100426.25
2022-08-20T09:02:26.199Z,100429.00
2022-08-20T09:04:36.045Z,100429.06
2022-08-20T09:06:40.389Z,100433.78
2022-08-20T09:08:47.950Z,100435.16
2022-08-20T09:10:50.296Z,100443.53
2022-08-20T09:12:52.517Z,100451.16
2022-08-20T09:14:54.861Z,100442.97
2022-08-20T09:16:56.882Z,100436.16
2022-08-20T09:18:59.960Z,100434.97
2022-08-20T09:21:02.050Z,100439.75
2022-08-20T09:23:07.382Z,100444.94
2022-08-20T09:25:09.874Z,100445.19
2022-08-20T09:27:11.813Z,100445.13
2022-08-20T09:29:13.833Z,100454.47
2022-08-20T09:31:18.242Z,100450.09
2022-08-20T09:33:20.486Z,100450.97
2022-08-20T09:35:22.578Z,100454.31
2022-08-20T09:37:26.114Z,100447.66
2022-08-20T09:39:28.106Z,100443.97
2022-08-20T09:41:30.903Z,100441.56
2022-08-20T09:43:43.345Z,100436.72
2022-08-20T09:45:45.286Z,100440.81
2022-08-20T09:47:56.144Z,100439.69
2022-08-20T09:49:59.130Z,100447.38
2022-08-20T09:52:01.215Z,100451.53
2022-08-20T09:54:03.239Z,100449.13
2022-08-20T09:56:05.403Z,100440.03
2022-08-20T09:58:38.737Z,100436.19
2022-08-20T10:00:40.802Z,100430.22
2022-08-20T10:02:42.898Z,100430.84
2022-08-20T10:04:44.965Z,100425.38
2022-08-20T10:06:48.170Z,100436.56
2022-08-20T10:08:50.241Z,100425.69
2022-08-20T10:10:52.346Z,100422.78
2022-08-20T10:12:55.160Z,100424.09
2022-08-20T10:14:57.277Z,100425.88
2022-08-20T10:17:00.283Z,100423.47
2022-08-20T10:19:03.054Z,100423.47
2022-08-20T10:21:12.401Z,100425.84
2022-08-20T10:23:14.467Z,100427.44
2022-08-20T10:25:17.822Z,100425.66
2022-08-20T10:27:19.867Z,100422.13
2022-08-20T10:29:21.894Z,100425.88
2022-08-20T10:31:23.897Z,100417.31
2022-08-20T10:33:25.974Z,100419.94
2022-08-20T10:35:28.097Z,100420.34
2022-08-20T10:37:30.134Z,100416.66
2022-08-20T10:39:32.148Z,100414.25
2022-08-20T10:41:38.332Z,100420.28
2022-08-20T10:43:41.048Z,100419.03
2022-08-20T10:45:43.022Z,100417.28
2022-08-20T10:47:45.267Z,100410.16
2022-08-20T10:49:48.480Z,100415.94
2022-08-20T10:51:50.521Z,100415.31
2022-08-20T10:53:53.470Z,100404.84
2022-08-20T10:55:56.236Z,100417.91
2022-08-20T10:57:58.415Z,100409.34
2022-08-20T11:00:00.603Z,100402.66
2022-08-20T11:02:02.655Z,100404.03
2022-08-20T11:04:05.092Z,100400.13
2022-08-20T11:06:07.491Z,100397.44
2022-08-20T11:08:09.547Z,100399.13
2022-08-20T11:10:13.954Z,100404.44
2022-08-20T11:12:17.370Z,100395.84
2022-08-20T11:14:19.467Z,100395.19
2022-08-20T11:16:21.481Z,100383.94
2022-08-20T11:18:24.894Z,100389.78
2022-08-20T11:20:27.197Z,100394.97
2022-08-20T11:22:29.327Z,100382.94
2022-08-20T11:24:31.244Z,100387.38
2022-08-20T11:26:33.213Z,100382.13
2022-08-20T11:28:35.198Z,100374.00
2022-08-20T11:30:37.715Z,100376.41
2022-08-20T11:32:39.692Z,100379.34
2022-08-20T11:34:41.702Z,100380.22
2022-08-20T11:36:44.224Z,100387.38
2022-08-20T11:38:46.298Z,100384.81
2022-08-20T11:40:48.400Z,100379.75
2022-08-20T11:43:13.253Z,100384.59
2022-08-20T11:45:12.487Z,100386.59
2022-08-20T11:47:30.061Z,100387.03
2022-08-20T11:49:33.855Z,100387.03
2022-08-20T11:51:48.991Z,100390.06
2022-08-20T11:53:51.963Z,100384.31
2022-08-20T11:55:54.130Z,100386.22
2022-08-20T11:57:56.178Z,100374.69
2022-08-20T12:00:06.333Z,100384.81
2022-08-20T12:02:12.301Z,100385.66
2022-08-20T12:04:14.715Z,100389.59
2022-08-20T12:06:16.833Z,100390.84
2022-08-20T12:08:27.092Z,100390.41
2022-08-20T12:10:30.299Z,100393.28
2022-08-20T12:12:32.330Z,100385.38
2022-08-20T12:14:34.438Z,100386.13
2022-08-20T12:16:36.452Z,100383.84
2022-08-20T12:18:38.693Z,100382.44
2022-08-20T12:20:40.677Z,100381.03
2022-08-20T12:22:43.940Z,100381.69
2022-08-20T12:24:46.077Z,100380.41
2022-08-20T12:26:48.485Z,100386.78
2022-08-20T12:28:50.499Z,100382.50
2022-08-20T12:30:52.498Z,100384.91
2022-08-20T12:32:57.649Z,100377.28
2022-08-20T12:34:59.874Z,100373.13
2022-08-20T12:37:15.936Z,100371.38
2022-08-20T12:39:18.126Z,100371.81
2022-08-20T12:41:20.107Z,100371.81
2022-08-20T12:43:25.050Z,100370.47
2022-08-20T12:45:27.521Z,100370.28
2022-08-20T12:47:41.039Z,100368.09
2022-08-20T12:49:53.268Z,100370.47
2022-08-20T12:51:55.288Z,100364.00
2022-08-20T12:53:57.308Z,100367.03
2022-08-20T12:55:59.317Z,100358.31
2022-08-20T12:58:02.838Z,100353.19
2022-08-20T13:00:24.230Z,100359.31
2022-08-20T13:02:26.782Z,100348.88
2022-08-20T13:04:28.791Z,100351.50
2022-08-20T13:06:30.840Z,100349.56
2022-08-20T13:08:32.816Z,100344.00
2022-08-20T13:10:36.531Z,100345.31
2022-08-20T13:12:38.544Z,100347.53
2022-08-20T13:14:40.716Z,100346.56
2022-08-20T13:16:42.646Z,100349.38
2022-08-20T13:18:45.515Z,100348.19
2022-08-20T13:20:48.150Z,100349.09
2022-08-20T13:22:50.229Z,100346.31
2022-08-20T13:24:53.499Z,100343.22
2022-08-20T13:27:03.930Z,100343.06
2022-08-20T13:29:05.910Z,100344.00
2022-08-20T13:31:07.861Z,100337.63
2022-08-20T13:33:09.851Z,100338.78
2022-08-20T13:35:12.032Z,100345.06
2022-08-20T13:37:26.000Z,100330.00
2022-08-20T13:39:28.157Z,100336.22
2022-08-20T13:41:30.157Z,100343.78
2022-08-20T13:43:32.213Z,100341.22
2022-08-20T13:45:34.255Z,100344.97
2022-08-20T13:47:37.666Z,100336.56
2022-08-20T13:49:39.686Z,100331.16
2022-08-20T13:51:41.702Z,100329.47
2022-08-20T13:53:43.718Z,100327.38
2022-08-20T13:55:46.463Z,100325.59
2022-08-20T13:57:48.520Z,100327.94
2022-08-20T13:59:54.399Z,100320.41
2022-08-20T14:01:56.417Z,100316.63
2022-08-20T14:03:58.313Z,100318.16
2022-08-20T14:06:04.872Z,100308.66
2022-08-20T14:08:17.484Z,100302.84
2022-08-20T14:10:26.456Z,100308.09
2022-08-20T14:12:28.628Z,100303.38
2022-08-20T14:14:32.829Z,100298.81
2022-08-20T14:16:35.139Z,100312.09
2022-08-20T14:18:37.794Z,100304.41
2022-08-20T14:20:39.720Z,100308.84
2022-08-20T14:22:43.078Z,100315.47
2022-08-20T14:24:48.568Z,100308.94
2022-08-20T14:26:50.586Z,100306.31
2022-08-20T14:28:52.571Z,100309.59
2022-08-20T14:30:54.984Z,100312.69
2022-08-20T14:32:57.152Z,100322.88
2022-08-20T14:34:59.670Z,100314.84
2022-08-20T14:37:23.081Z,100319.81
2022-08-20T14:39:27.848Z,100315.44
2022-08-20T14:41:29.893Z,100312.69
2022-08-20T14:43:31.989Z,100316.53
2022-08-20T14:45:33.945Z,100321.44
2022-08-20T14:47:38.748Z,100317.19
2022-08-20T14:49:40.946Z,100318.75
2022-08-20T14:51:42.873Z,100314.16
2022-08-20T14:53:44.866Z,100320.31
2022-08-20T14:55:46.897Z,100322.88
2022-08-20T14:57:48.888Z,100316.53
2022-08-20T14:59:52.949Z,100316.41
2022-08-20T15:01:54.970Z,100327.06
2022-08-20T15:03:58.883Z,100315.78
2022-08-20T15:06:01.096Z,100319.28
2022-08-20T15:08:03.152Z,100324.63
2022-08-20T15:10:09.038Z,100328.31
2022-08-20T15:12:11.066Z,100329.56
2022-08-20T15:14:13.126Z,100321.63
2022-08-20T15:16:18.950Z,100326.38
2022-08-20T15:18:25.101Z,100314.97
2022-08-20T15:20:31.199Z,100319.25
2022-08-20T15:22:33.208Z,100315.75
2022-08-20T15:24:35.227Z,100313.81
2022-08-20T15:26:37.298Z,100319.38
2022-08-20T15:28:39.316Z,100313.50
2022-08-20T15:30:41.833Z,100313.00
2022-08-20T15:32:43.954Z,100310.94
2022-08-20T15:34:46.016Z,100313.00
2022-08-20T15:36:48.012Z,100323.69
2022-08-20T15:38:50.047Z,100328.09
2022-08-20T15:40:52.119Z,100331.47
2022-08-20T15:42:54.187Z,100328.09
2022-08-20T15:44:56.189Z,100337.84
2022-08-20T15:47:20.469Z,100324.06
2022-08-20T15:49:22.519Z,100329.59
2022-08-20T15:51:43.511Z,100334.19
2022-08-20T15:54:00.106Z,100334.63
2022-08-20T15:56:44.742Z,100337.47
2022-08-20T15:59:24.060Z,100337.97
2022-08-20T16:01:42.438Z,100337.22
2022-08-20T16:04:36.662Z,100334.97
2022-08-20T16:06:38.783Z,100335.94
2022-08-20T16:09:00.342Z,100341.03
2022-08-20T16:11:35.813Z,100335.91
2022-08-20T16:13:40.471Z,100348.31
2022-08-20T16:15:49.315Z,100343.84
2022-08-20T16:18:20.641Z,100343.63
2022-08-20T16:20:35.347Z,100344.13
2022-08-20T16:22:43.351Z,100340.50
2022-08-20T16:24:45.416Z,100344.28
2022-08-20T16:26:59.616Z,100334.97
2022-08-20T16:29:01.493Z,100344.78
2022-08-20T16:31:07.653Z,100341.78
2022-08-20T16:33:32.040Z,100340.13
2022-08-20T16:36:03.580Z,100336.78
2022-08-20T16:38:37.033Z,100339.09
2022-08-20T16:41:08.080Z,100334.44
2022-08-20T16:43:11.226Z,100332.53
2022-08-20T16:45:39.567Z,100331.59
2022-08-20T16:47:45.992Z,100328.78
2022-08-20T16:50:22.738Z,100336.56
2022-08-20T16:52:25.066Z,100342.38
2022-08-20T16:54:29.335Z,100345.44
2022-08-20T16:56:43.511Z,100334.34
2022-08-20T16:58:45.598Z,100343.03
2022-08-20T17:00:47.911Z,100337.88
2022-08-20T17:02:50.860Z,100347.13
2022-08-20T17:04:59.232Z,100340.56
2022-08-20T17:07:03.435Z,100342.22
2022-08-20T17:09:12.653Z,100343.94
2022-08-20T17:11:21.808Z,100342.97
2022-08-20T17:13:44.912Z,100341.16
2022-08-20T17:16:02.361Z,100340.03
2022-08-20T17:18:28.389Z,100329.47
2022-08-20T17:20:30.474Z,100320.81
2022-08-20T17:22:38.873Z,100317.22
2022-08-20T17:24:40.897Z,100310.25
2022-08-20T17:26:54.045Z,100302.50
2022-08-20T17:29:02.268Z,100316.84
2022-08-20T17:31:04.352Z,100315.16
2022-08-20T17:33:08.827Z,100314.50
2022-08-20T17:35:10.864Z,100309.16
2022-08-20T17:37:25.004Z,100326.34
2022-08-20T17:39:29.113Z,100329.69
2022-08-20T17:41:33.784Z,100339.13
2022-08-20T17:43:35.986Z,100353.72
2022-08-20T17:45:45.784Z,100364.88
2022-08-20T17:47:47.774Z,100367.84
2022-08-20T17:50:15.445Z,100364.09
2022-08-20T17:52:22.869Z,100358.59
2022-08-20T17:54:28.644Z,100355.03
2022-08-20T17:56:33.978Z,100351.28
2022-08-20T17:59:06.810Z,100344.25
2022-08-20T18:01:18.000Z,100333.44
2022-08-20T18:03:25.813Z,100350.50
2022-08-20T18:05:29.751Z,100356.41
2022-08-20T18:08:04.095Z,100370.41
2022-08-20T18:10:36.806Z,100384.38
2022-08-20T18:13:19.997Z,100376.41
2022-08-20T18:15:47.149Z,100353.44
2022-08-20T18:18:04.095Z,100350.13
2022-08-20T18:20:37.877Z,100352.97
2022-08-20T18:23:08.901Z,100345.81
2022-08-20T18:25:54.363Z,100355.03
2022-08-20T18:28:03.677Z,100358.66
2022-08-20T18:30:22.431Z,100371.19
2022-08-20T18:32:36.702Z,100374.72
2022-08-20T18:34:41.142Z,100384.50
2022-08-20T18:36:54.820Z,100371.53
2022-08-20T18:39:10.488Z,100370.50
2022-08-20T18:41:33.565Z,100381.72
2022-08-20T18:43:36.516Z,100383.84
2022-08-20T18:45:38.563Z,100393.84
2022-08-20T18:47:45.372Z,100400.56
2022-08-20T18:49:47.642Z,100404.56
2022-08-20T18:51:50.525Z,100418.63
2022-08-20T18:53:52.548Z,100426.16
2022-08-20T18:56:16.459Z,100445.09
2022-08-20T18:58:55.374Z,100446.00
2022-08-20T19:00:57.379Z,100442.25
2022-08-20T19:03:37.535Z,100465.16
2022-08-20T19:05:45.452Z,100449.03
2022-08-20T19:07:48.681Z,100453.28
2022-08-20T19:10:31.132Z,100442.31
2022-08-20T19:13:16.883Z,100419.53
2022-08-20T19:15:21.275Z,100426.84
2022-08-20T19:18:09.487Z,100422.97
2022-08-20T19:20:19.725Z,100421.75
2022-08-20T19:22:21.974Z,100411.66
2022-08-20T19:24:33.015Z,100418.13
2022-08-20T19:26:51.258Z,100428.63
2022-08-20T19:29:08.622Z,100423.09
2022-08-20T19:31:13.233Z,100432.13
2022-08-20T19:33:15.278Z,100434.78
2022-08-20T19:35:17.612Z,100442.72
2022-08-20T19:37:34.977Z,100442.28
2022-08-20T19:39:38.198Z,100452.72
2022-08-20T19:41:56.454Z,100447.97
2022-08-20T19:43:59.937Z,100437.63
2022-08-20T19:46:01.980Z,100432.06
2022-08-20T19:48:28.701Z,100426.94
2022-08-20T19:50:48.412Z,100411.94
2022-08-20T19:53:30.766Z,100400.25
2022-08-20T19:55:36.151Z,100401.81
2022-08-20T19:57:38.183Z,100395.69
2022-08-20T19:59:40.225Z,100406.13
2022-08-20T20:02:02.621Z,100405.75
2022-08-20T20:04:15.506Z,100413.00
2022-08-20T20:06:18.436Z,100420.78
2022-08-20T20:08:22.452Z,100426.44
2022-08-20T20:10:34.329Z,100431.16
2022-08-20T20:12:36.409Z,100439.94
2022-08-20T20:14:38.732Z,100439.88
2022-08-20T20:16:40.876Z,100450.78
2022-08-20T20:18:43.062Z,100454.91
2022-08-20T20:20:57.309Z,100441.53
2022-08-20T20:23:06.639Z,100441.66
2022-08-20T20:25:37.648Z,100439.97
2022-08-20T20:27:39.817Z,100431.94
2022-08-20T20:29:41.918Z,100436.06
2022-08-20T20:31:56.811Z,100442.50
2022-08-20T20:34:09.571Z,100447.38
2022-08-20T20:36:18.329Z,100447.75
2022-08-20T20:38:27.651Z,100440.47
2022-08-20T20:40:43.793Z,100438.91
2022-08-20T20:43:05.731Z,100435.25
2022-08-20T20:45:18.779Z,100418.69
2022-08-20T20:47:27.345Z,100421.53
2022-08-20T20:49:36.997Z,100417.50
2022-08-20T20:51:52.775Z,100418.31
2022-08-20T20:53:55.345Z,100415.84
2022-08-20T20:55:57.455Z,100410.25
2022-08-20T20:57:59.967Z,100419.13
2022-08-20T21:00:14.372Z,100413.06
2022-08-20T21:02:25.401Z,100405.13
2022-08-20T21:04:27.493Z,100406.03
2022-08-20T21:06:29.597Z,100410.75
2022-08-20T21:08:31.926Z,100403.09
2022-08-20T21:10:37.630Z,100398.66
2022-08-20T21:12:39.640Z,100397.63
2022-08-20T21:14:41.671Z,100399.63
2022-08-20T21:16:43.684Z,100408.19
2022-08-20T21:18:45.773Z,100401.78
2022-08-20T21:20:49.121Z,100410.22
2022-08-20T21:22:51.174Z,100411.38
2022-08-20T21:24:53.283Z,100409.34
2022-08-20T21:26:55.389Z,100400.50
2022-08-20T21:28:57.374Z,100393.72
2022-08-20T21:30:59.743Z,100391.28
2022-08-20T21:33:01.768Z,100381.63
2022-08-20T21:35:04.148Z,100382.06
2022-08-20T21:37:06.127Z,100391.66
2022-08-20T21:39:08.398Z,100393.00
2022-08-20T21:41:10.455Z,100394.59
2022-08-20T21:43:13.004Z,100390.97
2022-08-20T21:45:18.732Z,100388.09
2022-08-20T21:47:21.708Z,100388.97
2022-08-20T21:49:24.702Z,100399.09
2022-08-20T21:51:27.208Z,100405.50
2022-08-20T21:53:29.213Z,100397.41
2022-08-20T21:55:35.047Z,100415.69
2022-08-20T21:57:39.548Z,100414.06
2022-08-20T21:59:41.605Z,100414.13
2022-08-20T22:01:43.625Z,100414.09
2022-08-20T22:03:45.799Z,100407.69
2022-08-20T22:05:51.814Z,100417.66
2022-08-20T22:07:53.808Z,100416.16
2022-08-20T22:09:55.844Z,100422.19
2022-08-20T22:12:00.745Z,100419.38
2022-08-20T22:14:05.309Z,100420.13
2022-08-20T22:16:11.453Z,100418.16
2022-08-20T22:18:13.450Z,100413.34
2022-08-20T22:20:15.488Z,100415.78
2022-08-20T22:22:17.619Z,100419.03
2022-08-20T22:24:19.728Z,100419.47
2022-08-20T22:26:21.789Z,100408.56
2022-08-20T22:28:23.780Z,100408.19
2022-08-20T22:30:26.221Z,100407.00
2022-08-20T22:32:33.357Z,100407.00
2022-08-20T22:34:50.253Z,100419.03
2022-08-20T22:36:52.795Z,100408.56
2022-08-20T22:38:54.995Z,100416.69
2022-08-20T22:40:57.057Z,100423.91
2022-08-20T22:42:59.380Z,100423.09
2022-08-20T22:45:01.523Z,100422.31
2022-08-20T22:47:06.838Z,100423.94
2022-08-20T22:49:11.560Z,100432.75
2022-08-20T22:51:23.142Z,100431.16
2022-08-20T22:53:25.440Z,100423.53
2022-08-20T22:55:27.462Z,100431.63
2022-08-20T22:57:30.534Z,100423.13
2022-08-20T22:59:46.451Z,100429.56
2022-08-20T23:01:55.555Z,100421.50
2022-08-20T23:04:01.513Z,100425.19
2022-08-20T23:06:03.593Z,100430.50
2022-08-20T23:08:06.809Z,100436.91
2022-08-20T23:10:09.135Z,100441.38
2022-08-20T23:12:11.295Z,100431.25
2022-08-20T23:14:13.346Z,100436.06
2022-08-20T23:16:15.369Z,100425.66
2022-08-20T23:18:18.049Z,100430.84
2022-08-20T23:20:20.085Z,100443.78
2022-08-20T23:22:22.257Z,100437.38
2022-08-20T23:24:24.324Z,100441.81
2022-08-20T23:26:26.471Z,100441.81
2022-08-20T23:28:28.691Z,100447.47
2022-08-20T23:30:30.707Z,100446.69
2022-08-20T23:32:32.785Z,100444.31
2022-08-20T23:34:34.880Z,100440.28
2022-08-20T23:36:37.322Z,100444.31
2022-08-20T23:38:39.404Z,100441.16
2022-08-20T23:40:41.500Z,100444.00
2022-08-20T23:42:43.551Z,100446.88
2022-08-20T23:44:45.626Z,100445.28
2022-08-20T23:46:47.632Z,100449.28
2022-08-20T23:48:51.062Z,100441.63
2022-08-20T23:50:53.065Z,100437.63
2022-08-20T23:52:55.418Z,100441.25
2022-08-20T23:54:57.412Z,100441.25
2022-08-20T23:56:59.437Z,100433.59
2022-08-20T23:59:01.449Z,100434.00
